sensor_id;sensor_type;location;lat;lon;timestamp;temperature;humidity
67182;DHT22;54114;53.524;49.396;2023-03-25T00:00:25;11.10;69.10
67182;DHT22;54114;53.524;49.396;2023-03-25T00:02:53;11.10;69.20
67182;DHT22;54114;53.524;49.396;2023-03-25T00:05:20;11.10;69.10
67182;DHT22;54114;53.524;49.396;2023-03-25T00:07:50;11.10;69.10
67182;DHT22;54114;53.524;49.396;2023-03-25T00:10:19;11.20;69.10
67182;DHT22;54114;53.524;49.396;2023-03-25T00:12:53;11.20;69.20
67182;DHT22;54114;53.524;49.396;2023-03-25T00:15:19;11.20;69.30
67182;DHT22;54114;53.524;49.396;2023-03-25T00:17:51;11.20;69.20
67182;DHT22;54114;53.524;49.396;2023-03-25T00:20:20;11.10;69.20
67182;DHT22;54114;53.524;49.396;2023-03-25T00:22:48;11.10;69.20
67182;DHT22;54114;53.524;49.396;2023-03-25T00:25:15;11.10;69.10
67182;DHT22;54114;53.524;49.396;2023-03-25T00:27:45;11.10;69.20
67182;DHT22;54114;53.524;49.396;2023-03-25T00:30:14;11.10;69.20
67182;DHT22;54114;53.524;49.396;2023-03-25T00:32:44;11.10;69.30
67182;DHT22;54114;53.524;49.396;2023-03-25T00:35:17;11.10;69.10
67182;DHT22;54114;53.524;49.396;2023-03-25T00:37:48;11.10;69.10
67182;DHT22;54114;53.524;49.396;2023-03-25T00:40:31;11.10;69.00
67182;DHT22;54114;53.524;49.396;2023-03-25T00:43:03;11.10;69.10
67182;DHT22;54114;53.524;49.396;2023-03-25T00:45:31;11.10;69.20
67182;DHT22;54114;53.524;49.396;2023-03-25T00:47:58;11.10;69.20
67182;DHT22;54114;53.524;49.396;2023-03-25T00:50:25;11.10;69.10
67182;DHT22;54114;53.524;49.396;2023-03-25T00:52:52;11.10;69.20
67182;DHT22;54114;53.524;49.396;2023-03-25T00:55:20;11.10;69.20
67182;DHT22;54114;53.524;49.396;2023-03-25T00:57:49;11.10;69.30
67182;DHT22;54114;53.524;49.396;2023-03-25T01:00:22;11.10;69.40
67182;DHT22;54114;53.524;49.396;2023-03-25T01:02:49;11.20;69.50
67182;DHT22;54114;53.524;49.396;2023-03-25T01:05:21;11.20;69.40
67182;DHT22;54114;53.524;49.396;2023-03-25T01:07:48;11.10;69.30
67182;DHT22;54114;53.524;49.396;2023-03-25T01:10:16;11.10;69.40
67182;DHT22;54114;53.524;49.396;2023-03-25T01:12:43;11.00;69.50
67182;DHT22;54114;53.524;49.396;2023-03-25T01:15:10;11.00;69.80
67182;DHT22;54114;53.524;49.396;2023-03-25T01:17:37;10.90;69.80
67182;DHT22;54114;53.524;49.396;2023-03-25T01:20:04;10.90;70.00
67182;DHT22;54114;53.524;49.396;2023-03-25T01:22:33;10.90;70.10
67182;DHT22;54114;53.524;49.396;2023-03-25T01:25:00;10.90;70.30
67182;DHT22;54114;53.524;49.396;2023-03-25T01:27:27;10.80;70.30
67182;DHT22;54114;53.524;49.396;2023-03-25T01:29:55;10.90;70.50
67182;DHT22;54114;53.524;49.396;2023-03-25T01:32:22;10.90;70.50
67182;DHT22;54114;53.524;49.396;2023-03-25T01:34:49;10.90;70.60
67182;DHT22;54114;53.524;49.396;2023-03-25T01:37:16;10.90;70.70
67182;DHT22;54114;53.524;49.396;2023-03-25T01:39:43;10.90;70.80
67182;DHT22;54114;53.524;49.396;2023-03-25T01:42:11;10.90;70.90
67182;DHT22;54114;53.524;49.396;2023-03-25T01:47:04;11.00;70.90
67182;DHT22;54114;53.524;49.396;2023-03-25T01:49:41;11.10;70.90
67182;DHT22;54114;53.524;49.396;2023-03-25T01:52:20;11.20;71.10
67182;DHT22;54114;53.524;49.396;2023-03-25T01:54:51;11.20;71.10
67182;DHT22;54114;53.524;49.396;2023-03-25T01:57:21;11.30;71.10
67182;DHT22;54114;53.524;49.396;2023-03-25T01:59:49;11.30;71.20
67182;DHT22;54114;53.524;49.396;2023-03-25T02:02:17;11.30;71.30
67182;DHT22;54114;53.524;49.396;2023-03-25T02:04:52;11.40;71.20
67182;DHT22;54114;53.524;49.396;2023-03-25T02:07:28;11.40;71.30
67182;DHT22;54114;53.524;49.396;2023-03-25T02:10:00;11.50;71.30
67182;DHT22;54114;53.524;49.396;2023-03-25T02:12:30;11.60;71.20
67182;DHT22;54114;53.524;49.396;2023-03-25T02:14:59;11.70;71.10
67182;DHT22;54114;53.524;49.396;2023-03-25T02:21:00;11.90;70.70
67182;DHT22;54114;53.524;49.396;2023-03-25T02:29:43;11.90;70.50
67182;DHT22;54114;53.524;49.396;2023-03-25T02:36:12;11.90;70.80
67182;DHT22;54114;53.524;49.396;2023-03-25T02:38:52;11.90;70.60
67182;DHT22;54114;53.524;49.396;2023-03-25T02:42:11;12.00;70.60
67182;DHT22;54114;53.524;49.396;2023-03-25T02:47:18;12.30;69.90
67182;DHT22;54114;53.524;49.396;2023-03-25T02:50:01;12.30;69.50
67182;DHT22;54114;53.524;49.396;2023-03-25T02:52:39;12.40;69.00
67182;DHT22;54114;53.524;49.396;2023-03-25T02:55:18;12.50;68.80
67182;DHT22;54114;53.524;49.396;2023-03-25T02:57:49;12.40;68.40
67182;DHT22;54114;53.524;49.396;2023-03-25T03:00:28;12.40;68.60
67182;DHT22;54114;53.524;49.396;2023-03-25T03:03:03;12.40;68.80
67182;DHT22;54114;53.524;49.396;2023-03-25T03:05:42;12.40;68.90
67182;DHT22;54114;53.524;49.396;2023-03-25T03:14:24;12.50;68.30
67182;DHT22;54114;53.524;49.396;2023-03-25T03:17:07;12.60;68.00
67182;DHT22;54114;53.524;49.396;2023-03-25T03:19:44;12.60;67.80
67182;DHT22;54114;53.524;49.396;2023-03-25T03:25:18;12.80;67.30
67182;DHT22;54114;53.524;49.396;2023-03-25T03:28:11;12.80;67.30
67182;DHT22;54114;53.524;49.396;2023-03-25T03:30:56;12.80;67.00
67182;DHT22;54114;53.524;49.396;2023-03-25T03:33:50;13.00;66.70
67182;DHT22;54114;53.524;49.396;2023-03-25T03:36:30;13.00;66.10
67182;DHT22;54114;53.524;49.396;2023-03-25T03:39:21;13.10;65.70
67182;DHT22;54114;53.524;49.396;2023-03-25T03:41:57;13.20;65.20
67182;DHT22;54114;53.524;49.396;2023-03-25T03:44:33;13.20;64.80
67182;DHT22;54114;53.524;49.396;2023-03-25T03:47:04;13.20;64.60
67182;DHT22;54114;53.524;49.396;2023-03-25T03:49:57;13.30;64.70
67182;DHT22;54114;53.524;49.396;2023-03-25T03:52:50;13.40;64.70
67182;DHT22;54114;53.524;49.396;2023-03-25T03:55:24;13.40;64.70
67182;DHT22;54114;53.524;49.396;2023-03-25T03:58:09;13.50;64.60
67182;DHT22;54114;53.524;49.396;2023-03-25T04:00:50;13.60;64.20
67182;DHT22;54114;53.524;49.396;2023-03-25T04:03:35;13.70;64.30
67182;DHT22;54114;53.524;49.396;2023-03-25T04:06:20;13.70;64.10
67182;DHT22;54114;53.524;49.396;2023-03-25T04:12:20;13.50;64.30
67182;DHT22;54114;53.524;49.396;2023-03-25T04:14:52;13.40;64.60
67182;DHT22;54114;53.524;49.396;2023-03-25T04:17:22;13.40;64.70
67182;DHT22;54114;53.524;49.396;2023-03-25T04:19:49;13.30;64.60
67182;DHT22;54114;53.524;49.396;2023-03-25T04:22:19;13.40;64.90
67182;DHT22;54114;53.524;49.396;2023-03-25T04:24:47;13.70;64.50
67182;DHT22;54114;53.524;49.396;2023-03-25T04:27:20;14.00;63.30
67182;DHT22;54114;53.524;49.396;2023-03-25T04:29:52;14.20;61.60
67182;DHT22;54114;53.524;49.396;2023-03-25T04:32:18;14.40;60.70
67182;DHT22;54114;53.524;49.396;2023-03-25T04:34:50;14.50;60.30
67182;DHT22;54114;53.524;49.396;2023-03-25T04:37:19;14.50;59.60
67182;DHT22;54114;53.524;49.396;2023-03-25T04:39:47;14.60;58.30
67182;DHT22;54114;53.524;49.396;2023-03-25T04:42:14;14.70;58.30
67182;DHT22;54114;53.524;49.396;2023-03-25T04:44:42;14.80;57.60
67182;DHT22;54114;53.524;49.396;2023-03-25T04:47:13;14.90;57.20
67182;DHT22;54114;53.524;49.396;2023-03-25T04:49:43;15.00;56.90
67182;DHT22;54114;53.524;49.396;2023-03-25T04:52:12;15.10;56.60
67182;DHT22;54114;53.524;49.396;2023-03-25T04:54:39;15.40;55.90
67182;DHT22;54114;53.524;49.396;2023-03-25T04:57:06;15.50;55.30
67182;DHT22;54114;53.524;49.396;2023-03-25T04:59:36;15.70;54.70
67182;DHT22;54114;53.524;49.396;2023-03-25T05:02:05;15.70;53.70
67182;DHT22;54114;53.524;49.396;2023-03-25T05:04:32;15.80;54.00
67182;DHT22;54114;53.524;49.396;2023-03-25T05:06:59;15.90;53.40
67182;DHT22;54114;53.524;49.396;2023-03-25T05:09:26;16.10;53.40
67182;DHT22;54114;53.524;49.396;2023-03-25T05:11:54;16.20;52.60
67182;DHT22;54114;53.524;49.396;2023-03-25T05:14:24;16.30;51.80
67182;DHT22;54114;53.524;49.396;2023-03-25T05:16:50;16.40;51.10
67182;DHT22;54114;53.524;49.396;2023-03-25T05:19:18;16.40;51.00
67182;DHT22;54114;53.524;49.396;2023-03-25T05:21:49;16.40;50.70
67182;DHT22;54114;53.524;49.396;2023-03-25T05:24:17;16.50;50.10
67182;DHT22;54114;53.524;49.396;2023-03-25T05:26:46;16.50;50.20
67182;DHT22;54114;53.524;49.396;2023-03-25T05:29:15;16.50;50.10
67182;DHT22;54114;53.524;49.396;2023-03-25T05:31:49;16.50;50.30
67182;DHT22;54114;53.524;49.396;2023-03-25T05:34:16;16.60;50.10
67182;DHT22;54114;53.524;49.396;2023-03-25T05:36:42;16.70;49.90
67182;DHT22;54114;53.524;49.396;2023-03-25T05:39:09;17.00;49.30
67182;DHT22;54114;53.524;49.396;2023-03-25T05:41:36;17.40;48.40
67182;DHT22;54114;53.524;49.396;2023-03-25T05:44:11;17.80;47.40
67182;DHT22;54114;53.524;49.396;2023-03-25T05:46:43;18.00;46.50
67182;DHT22;54114;53.524;49.396;2023-03-25T05:49:17;18.40;46.60
67182;DHT22;54114;53.524;49.396;2023-03-25T05:51:46;18.70;45.40
67182;DHT22;54114;53.524;49.396;2023-03-25T05:54:18;18.90;44.90
67182;DHT22;54114;53.524;49.396;2023-03-25T05:56:45;19.10;44.30
67182;DHT22;54114;53.524;49.396;2023-03-25T05:59:12;19.10;44.00
67182;DHT22;54114;53.524;49.396;2023-03-25T06:01:39;19.10;43.70
67182;DHT22;54114;53.524;49.396;2023-03-25T06:04:13;19.20;43.20
67182;DHT22;54114;53.524;49.396;2023-03-25T06:06:41;19.40;42.40
67182;DHT22;54114;53.524;49.396;2023-03-25T06:09:08;19.60;41.00
67182;DHT22;54114;53.524;49.396;2023-03-25T06:11:35;19.60;41.10
67182;DHT22;54114;53.524;49.396;2023-03-25T06:14:05;19.70;41.40
67182;DHT22;54114;53.524;49.396;2023-03-25T06:16:32;19.90;40.90
67182;DHT22;54114;53.524;49.396;2023-03-25T06:19:00;20.00;40.50
67182;DHT22;54114;53.524;49.396;2023-03-25T06:21:29;20.10;40.20
67182;DHT22;54114;53.524;49.396;2023-03-25T06:24:00;20.30;40.20
67182;DHT22;54114;53.524;49.396;2023-03-25T06:26:29;20.40;39.80
67182;DHT22;54114;53.524;49.396;2023-03-25T06:29:04;20.70;39.50
67182;DHT22;54114;53.524;49.396;2023-03-25T06:31:33;20.80;39.50
67182;DHT22;54114;53.524;49.396;2023-03-25T06:34:04;21.00;38.80
67182;DHT22;54114;53.524;49.396;2023-03-25T06:36:36;20.70;38.80
67182;DHT22;54114;53.524;49.396;2023-03-25T06:39:07;20.60;39.30
67182;DHT22;54114;53.524;49.396;2023-03-25T06:41:37;20.50;39.20
67182;DHT22;54114;53.524;49.396;2023-03-25T06:44:06;20.60;39.10
67182;DHT22;54114;53.524;49.396;2023-03-25T06:46:35;20.90;38.90
67182;DHT22;54114;53.524;49.396;2023-03-25T06:49:04;21.20;38.30
67182;DHT22;54114;53.524;49.396;2023-03-25T06:51:36;21.20;37.90
67182;DHT22;54114;53.524;49.396;2023-03-25T06:54:05;21.30;38.00
67182;DHT22;54114;53.524;49.396;2023-03-25T06:56:34;21.20;37.60
67182;DHT22;54114;53.524;49.396;2023-03-25T06:59:08;21.00;38.10
67182;DHT22;54114;53.524;49.396;2023-03-25T07:01:36;21.10;38.30
67182;DHT22;54114;53.524;49.396;2023-03-25T07:04:10;21.10;38.90
67182;DHT22;54114;53.524;49.396;2023-03-25T07:06:37;21.10;38.00
67182;DHT22;54114;53.524;49.396;2023-03-25T07:09:06;21.00;37.90
67182;DHT22;54114;53.524;49.396;2023-03-25T07:11:35;21.10;38.20
67182;DHT22;54114;53.524;49.396;2023-03-25T07:14:04;21.10;37.90
67182;DHT22;54114;53.524;49.396;2023-03-25T07:16:32;21.00;37.90
67182;DHT22;54114;53.524;49.396;2023-03-25T07:19:04;21.20;38.10
67182;DHT22;54114;53.524;49.396;2023-03-25T07:21:35;21.50;37.70
67182;DHT22;54114;53.524;49.396;2023-03-25T07:24:04;21.80;37.30
67182;DHT22;54114;53.524;49.396;2023-03-25T07:26:34;22.20;36.60
67182;DHT22;54114;53.524;49.396;2023-03-25T07:29:03;22.90;35.60
67182;DHT22;54114;53.524;49.396;2023-03-25T07:31:33;23.30;34.90
67182;DHT22;54114;53.524;49.396;2023-03-25T07:34:00;23.70;34.00
67182;DHT22;54114;53.524;49.396;2023-03-25T07:36:27;24.20;33.60
67182;DHT22;54114;53.524;49.396;2023-03-25T07:38:54;24.30;33.20
67182;DHT22;54114;53.524;49.396;2023-03-25T07:41:21;24.60;32.90
67182;DHT22;54114;53.524;49.396;2023-03-25T07:43:47;24.50;32.80
67182;DHT22;54114;53.524;49.396;2023-03-25T07:46:16;24.30;32.30
67182;DHT22;54114;53.524;49.396;2023-03-25T07:48:43;24.40;32.10
67182;DHT22;54114;53.524;49.396;2023-03-25T07:51:15;24.30;32.10
67182;DHT22;54114;53.524;49.396;2023-03-25T07:53:47;24.50;31.40
67182;DHT22;54114;53.524;49.396;2023-03-25T07:56:16;24.30;31.40
67182;DHT22;54114;53.524;49.396;2023-03-25T07:58:45;24.20;31.50
67182;DHT22;54114;53.524;49.396;2023-03-25T08:01:19;24.20;31.40
67182;DHT22;54114;53.524;49.396;2023-03-25T08:03:48;23.80;31.30
67182;DHT22;54114;53.524;49.396;2023-03-25T08:06:17;23.60;31.40
67182;DHT22;54114;53.524;49.396;2023-03-25T08:08:44;23.60;31.40
67182;DHT22;54114;53.524;49.396;2023-03-25T08:11:18;24.10;31.30
67182;DHT22;54114;53.524;49.396;2023-03-25T08:13:45;24.90;30.60
67182;DHT22;54114;53.524;49.396;2023-03-25T08:16:13;25.30;29.90
67182;DHT22;54114;53.524;49.396;2023-03-25T08:18:40;25.40;29.70
67182;DHT22;54114;53.524;49.396;2023-03-25T08:21:12;25.50;29.50
67182;DHT22;54114;53.524;49.396;2023-03-25T08:23:39;25.90;29.40
67182;DHT22;54114;53.524;49.396;2023-03-25T08:26:06;25.90;28.90
67182;DHT22;54114;53.524;49.396;2023-03-25T08:28:33;25.70;28.80
67182;DHT22;54114;53.524;49.396;2023-03-25T08:31:00;25.80;28.90
67182;DHT22;54114;53.524;49.396;2023-03-25T08:33:31;26.40;28.80
67182;DHT22;54114;53.524;49.396;2023-03-25T08:36:02;26.90;28.50
67182;DHT22;54114;53.524;49.396;2023-03-25T08:38:29;27.10;28.20
67182;DHT22;54114;53.524;49.396;2023-03-25T08:40:59;26.70;28.10
67182;DHT22;54114;53.524;49.396;2023-03-25T08:43:30;26.50;28.20
67182;DHT22;54114;53.524;49.396;2023-03-25T08:45:57;26.00;28.30
67182;DHT22;54114;53.524;49.396;2023-03-25T08:48:26;25.60;28.30
67182;DHT22;54114;53.524;49.396;2023-03-25T08:50:57;25.50;28.40
67182;DHT22;54114;53.524;49.396;2023-03-25T08:53:28;25.70;28.50
67182;DHT22;54114;53.524;49.396;2023-03-25T08:55:58;25.60;28.20
67182;DHT22;54114;53.524;49.396;2023-03-25T08:58:27;25.60;28.30
67182;DHT22;54114;53.524;49.396;2023-03-25T09:01:00;26.10;28.10
67182;DHT22;54114;53.524;49.396;2023-03-25T09:03:34;26.30;27.80
67182;DHT22;54114;53.524;49.396;2023-03-25T09:06:07;26.20;27.70
67182;DHT22;54114;53.524;49.396;2023-03-25T09:08:39;26.00;27.40
67182;DHT22;54114;53.524;49.396;2023-03-25T09:11:08;26.10;27.50
67182;DHT22;54114;53.524;49.396;2023-03-25T09:13:40;26.30;27.40
67182;DHT22;54114;53.524;49.396;2023-03-25T09:16:10;26.80;27.10
67182;DHT22;54114;53.524;49.396;2023-03-25T09:18:37;27.60;26.90
67182;DHT22;54114;53.524;49.396;2023-03-25T09:21:09;28.00;26.50
67182;DHT22;54114;53.524;49.396;2023-03-25T09:23:38;28.30;26.60
67182;DHT22;54114;53.524;49.396;2023-03-25T09:26:05;28.20;26.40
67182;DHT22;54114;53.524;49.396;2023-03-25T09:28:39;27.90;26.40
67182;DHT22;54114;53.524;49.396;2023-03-25T09:31:10;27.70;26.40
67182;DHT22;54114;53.524;49.396;2023-03-25T09:33:46;27.60;26.80
67182;DHT22;54114;53.524;49.396;2023-03-25T09:36:20;27.50;26.80
67182;DHT22;54114;53.524;49.396;2023-03-25T09:38:47;27.50;26.50
67182;DHT22;54114;53.524;49.396;2023-03-25T09:44:13;27.10;26.60
67182;DHT22;54114;53.524;49.396;2023-03-25T09:46:51;27.00;26.90
67182;DHT22;54114;53.524;49.396;2023-03-25T09:49:23;27.10;26.80
67182;DHT22;54114;53.524;49.396;2023-03-25T09:52:03;27.20;26.80
67182;DHT22;54114;53.524;49.396;2023-03-25T09:54:37;27.30;26.90
67182;DHT22;54114;53.524;49.396;2023-03-25T09:57:20;27.30;26.90
67182;DHT22;54114;53.524;49.396;2023-03-25T09:59:52;27.00;27.10
67182;DHT22;54114;53.524;49.396;2023-03-25T10:02:34;26.60;27.20
67182;DHT22;54114;53.524;49.396;2023-03-25T10:11:14;26.10;28.00
67182;DHT22;54114;53.524;49.396;2023-03-25T10:14:09;26.20;28.00
67182;DHT22;54114;53.524;49.396;2023-03-25T10:24:47;25.70;28.30
67182;DHT22;54114;53.524;49.396;2023-03-25T10:27:33;25.70;28.40
67182;DHT22;54114;53.524;49.396;2023-03-25T10:30:25;25.90;28.40
67182;DHT22;54114;53.524;49.396;2023-03-25T10:33:00;25.90;28.10
67182;DHT22;54114;53.524;49.396;2023-03-25T10:35:34;26.10;28.10
67182;DHT22;54114;53.524;49.396;2023-03-25T10:38:12;26.30;28.10
67182;DHT22;54114;53.524;49.396;2023-03-25T10:40:51;26.40;27.80
67182;DHT22;54114;53.524;49.396;2023-03-25T10:43:40;26.30;27.70
67182;DHT22;54114;53.524;49.396;2023-03-25T10:46:21;25.80;27.90
67182;DHT22;54114;53.524;49.396;2023-03-25T10:48:53;25.60;28.10
67182;DHT22;54114;53.524;49.396;2023-03-25T10:51:26;25.40;28.20
67182;DHT22;54114;53.524;49.396;2023-03-25T10:53:54;25.20;28.30
67182;DHT22;54114;53.524;49.396;2023-03-25T10:56:28;25.00;28.50
67182;DHT22;54114;53.524;49.396;2023-03-25T10:59:01;24.70;28.70
67182;DHT22;54114;53.524;49.396;2023-03-25T11:01:51;24.30;29.10
67182;DHT22;54114;53.524;49.396;2023-03-25T11:04:20;24.00;29.20
67182;DHT22;54114;53.524;49.396;2023-03-25T11:06:56;23.70;29.60
67182;DHT22;54114;53.524;49.396;2023-03-25T11:09:26;23.40;29.80
67182;DHT22;54114;53.524;49.396;2023-03-25T11:12:03;23.30;30.00
67182;DHT22;54114;53.524;49.396;2023-03-25T11:14:36;23.00;30.10
67182;DHT22;54114;53.524;49.396;2023-03-25T11:17:15;22.80;30.50
67182;DHT22;54114;53.524;49.396;2023-03-25T11:19:57;22.70;30.80
67182;DHT22;54114;53.524;49.396;2023-03-25T11:22:37;22.80;31.00
67182;DHT22;54114;53.524;49.396;2023-03-25T11:27:58;23.50;30.50
67182;DHT22;54114;53.524;49.396;2023-03-25T11:30:27;23.40;30.40
67182;DHT22;54114;53.524;49.396;2023-03-25T11:35:41;23.60;30.40
67182;DHT22;54114;53.524;49.396;2023-03-25T11:38:21;23.80;30.50
67182;DHT22;54114;53.524;49.396;2023-03-25T11:40:58;23.90;30.10
67182;DHT22;54114;53.524;49.396;2023-03-25T11:43:34;23.90;30.20
67182;DHT22;54114;53.524;49.396;2023-03-25T11:46:17;24.00;30.30
67182;DHT22;54114;53.524;49.396;2023-03-25T11:48:46;24.20;30.20
67182;DHT22;54114;53.524;49.396;2023-03-25T11:51:27;24.20;30.00
67182;DHT22;54114;53.524;49.396;2023-03-25T11:54:00;24.10;30.10
67182;DHT22;54114;53.524;49.396;2023-03-25T11:56:36;23.90;30.50
67182;DHT22;54114;53.524;49.396;2023-03-25T12:02:01;24.10;30.90
67182;DHT22;54114;53.524;49.396;2023-03-25T12:04:35;23.90;31.00
67182;DHT22;54114;53.524;49.396;2023-03-25T12:07:09;23.70;31.40
67182;DHT22;54114;53.524;49.396;2023-03-25T12:09:55;23.60;31.70
67182;DHT22;54114;53.524;49.396;2023-03-25T12:16:09;23.30;32.10
67182;DHT22;54114;53.524;49.396;2023-03-25T12:22:06;22.80;32.80
67182;DHT22;54114;53.524;49.396;2023-03-25T12:28:23;22.30;34.00
67182;DHT22;54114;53.524;49.396;2023-03-25T12:34:17;21.80;35.00
67182;DHT22;54114;53.524;49.396;2023-03-25T12:58:56;21.70;35.70
67182;DHT22;54114;53.524;49.396;2023-03-25T13:08:03;21.80;35.60
67182;DHT22;54114;53.524;49.396;2023-03-25T13:11:00;21.90;35.50
67182;DHT22;54114;53.524;49.396;2023-03-25T13:13:48;21.70;35.40
67182;DHT22;54114;53.524;49.396;2023-03-25T13:16:36;21.60;35.50
67182;DHT22;54114;53.524;49.396;2023-03-25T13:19:26;21.60;35.70
67182;DHT22;54114;53.524;49.396;2023-03-25T13:22:22;21.60;35.60
67182;DHT22;54114;53.524;49.396;2023-03-25T13:26:11;21.60;35.40
67182;DHT22;54114;53.524;49.396;2023-03-25T13:28:36;21.50;35.40
67182;DHT22;54114;53.524;49.396;2023-03-25T13:31:30;21.30;35.50
67182;DHT22;54114;53.524;49.396;2023-03-25T13:37:30;21.10;35.80
67182;DHT22;54114;53.524;49.396;2023-03-25T13:45:26;20.60;36.30
67182;DHT22;54114;53.524;49.396;2023-03-25T13:48:26;20.50;36.50
67182;DHT22;54114;53.524;49.396;2023-03-25T13:51:01;20.30;36.70
67182;DHT22;54114;53.524;49.396;2023-03-25T13:53:51;20.10;37.00
67182;DHT22;54114;53.524;49.396;2023-03-25T13:59:57;19.60;37.80
67182;DHT22;54114;53.524;49.396;2023-03-25T14:17:49;19.10;39.10
67182;DHT22;54114;53.524;49.396;2023-03-25T14:20:26;19.10;39.20
67182;DHT22;54114;53.524;49.396;2023-03-25T14:23:01;19.10;39.30
67182;DHT22;54114;53.524;49.396;2023-03-25T14:25:38;19.00;40.10
67182;DHT22;54114;53.524;49.396;2023-03-25T14:28:19;18.90;39.60
67182;DHT22;54114;53.524;49.396;2023-03-25T14:44:32;18.20;41.00
67182;DHT22;54114;53.524;49.396;2023-03-25T14:52:58;17.80;41.80
67182;DHT22;54114;53.524;49.396;2023-03-25T14:55:46;17.60;42.20
67182;DHT22;54114;53.524;49.396;2023-03-25T15:00:57;17.30;42.70
67182;DHT22;54114;53.524;49.396;2023-03-25T15:03:32;17.10;43.40
67182;DHT22;54114;53.524;49.396;2023-03-25T15:06:12;16.90;43.70
67182;DHT22;54114;53.524;49.396;2023-03-25T15:08:53;16.80;44.20
67182;DHT22;54114;53.524;49.396;2023-03-25T15:11:33;16.70;44.40
67182;DHT22;54114;53.524;49.396;2023-03-25T15:14:15;16.50;44.70
67182;DHT22;54114;53.524;49.396;2023-03-25T15:19:17;16.20;45.50
67182;DHT22;54114;53.524;49.396;2023-03-25T15:36:37;15.60;47.70
67182;DHT22;54114;53.524;49.396;2023-03-25T15:40:07;15.50;47.50
67182;DHT22;54114;53.524;49.396;2023-03-25T15:48:26;15.20;48.70
67182;DHT22;54114;53.524;49.396;2023-03-25T15:57:29;15.20;50.10
67182;DHT22;54114;53.524;49.396;2023-03-25T16:03:16;15.10;49.90
67182;DHT22;54114;53.524;49.396;2023-03-25T16:05:54;15.00;50.00
67182;DHT22;54114;53.524;49.396;2023-03-25T16:08:39;15.00;50.20
67182;DHT22;54114;53.524;49.396;2023-03-25T16:13:59;14.90;50.30
67182;DHT22;54114;53.524;49.396;2023-03-25T16:16:43;14.90;50.40
67182;DHT22;54114;53.524;49.396;2023-03-25T16:19:39;14.80;50.40
67182;DHT22;54114;53.524;49.396;2023-03-25T16:25:11;14.80;50.40
67182;DHT22;54114;53.524;49.396;2023-03-25T16:27:45;14.80;50.50
67182;DHT22;54114;53.524;49.396;2023-03-25T16:30:39;14.70;50.50
67182;DHT22;54114;53.524;49.396;2023-03-25T16:35:43;14.70;50.60
67182;DHT22;54114;53.524;49.396;2023-03-25T16:38:18;14.70;50.60
67182;DHT22;54114;53.524;49.396;2023-03-25T16:40:53;14.70;50.80
67182;DHT22;54114;53.524;49.396;2023-03-25T16:43:30;14.70;50.90
67182;DHT22;54114;53.524;49.396;2023-03-25T16:46:03;14.70;51.00
67182;DHT22;54114;53.524;49.396;2023-03-25T16:48:41;14.60;51.00
67182;DHT22;54114;53.524;49.396;2023-03-25T16:51:29;14.60;51.10
67182;DHT22;54114;53.524;49.396;2023-03-25T16:54:08;14.60;51.20
67182;DHT22;54114;53.524;49.396;2023-03-25T16:56:37;14.60;51.50
67182;DHT22;54114;53.524;49.396;2023-03-25T16:59:11;14.60;51.40
67182;DHT22;54114;53.524;49.396;2023-03-25T17:01:49;14.60;51.60
67182;DHT22;54114;53.524;49.396;2023-03-25T17:04:20;14.60;51.90
67182;DHT22;54114;53.524;49.396;2023-03-25T17:06:59;14.50;51.80
67182;DHT22;54114;53.524;49.396;2023-03-25T17:09:37;14.60;52.00
67182;DHT22;54114;53.524;49.396;2023-03-25T17:12:19;14.60;52.00
67182;DHT22;54114;53.524;49.396;2023-03-25T17:14:48;14.50;52.00
67182;DHT22;54114;53.524;49.396;2023-03-25T17:17:33;14.50;52.10
67182;DHT22;54114;53.524;49.396;2023-03-25T17:20:19;14.50;52.10
67182;DHT22;54114;53.524;49.396;2023-03-25T17:34:20;14.50;52.10
67182;DHT22;54114;53.524;49.396;2023-03-25T17:36:59;14.40;52.00
67182;DHT22;54114;53.524;49.396;2023-03-25T17:39:32;14.40;52.10
67182;DHT22;54114;53.524;49.396;2023-03-25T17:42:02;14.40;52.20
67182;DHT22;54114;53.524;49.396;2023-03-25T17:44:35;14.40;52.20
67182;DHT22;54114;53.524;49.396;2023-03-25T17:47:11;14.40;52.10
67182;DHT22;54114;53.524;49.396;2023-03-25T17:49:42;14.40;52.10
67182;DHT22;54114;53.524;49.396;2023-03-25T17:52:11;14.40;52.10
67182;DHT22;54114;53.524;49.396;2023-03-25T17:54:43;14.40;52.00
67182;DHT22;54114;53.524;49.396;2023-03-25T17:57:18;14.40;52.00
67182;DHT22;54114;53.524;49.396;2023-03-25T17:59:53;14.40;52.00
67182;DHT22;54114;53.524;49.396;2023-03-25T18:02:20;14.50;52.00
67182;DHT22;54114;53.524;49.396;2023-03-25T18:04:52;14.50;52.00
67182;DHT22;54114;53.524;49.396;2023-03-25T18:07:24;14.50;52.00
67182;DHT22;54114;53.524;49.396;2023-03-25T18:09:52;14.50;51.90
67182;DHT22;54114;53.524;49.396;2023-03-25T18:12:23;14.50;51.90
67182;DHT22;54114;53.524;49.396;2023-03-25T18:14:50;14.60;52.00
67182;DHT22;54114;53.524;49.396;2023-03-25T18:17:20;14.60;52.00
67182;DHT22;54114;53.524;49.396;2023-03-25T18:19:47;14.60;52.00
67182;DHT22;54114;53.524;49.396;2023-03-25T18:22:16;14.60;52.10
67182;DHT22;54114;53.524;49.396;2023-03-25T18:24:47;14.70;52.10
67182;DHT22;54114;53.524;49.396;2023-03-25T18:27:14;14.70;52.10
67182;DHT22;54114;53.524;49.396;2023-03-25T18:29:44;14.70;52.10
67182;DHT22;54114;53.524;49.396;2023-03-25T18:32:11;14.70;52.00
67182;DHT22;54114;53.524;49.396;2023-03-25T18:34:40;14.70;52.00
67182;DHT22;54114;53.524;49.396;2023-03-25T18:37:10;14.70;52.00
67182;DHT22;54114;53.524;49.396;2023-03-25T18:39:39;14.70;52.00
67182;DHT22;54114;53.524;49.396;2023-03-25T18:42:06;14.80;52.10
67182;DHT22;54114;53.524;49.396;2023-03-25T18:44:33;14.80;52.30
67182;DHT22;54114;53.524;49.396;2023-03-25T18:47:07;14.80;52.40
67182;DHT22;54114;53.524;49.396;2023-03-25T18:49:39;14.80;52.60
67182;DHT22;54114;53.524;49.396;2023-03-25T18:52:08;14.80;52.70
67182;DHT22;54114;53.524;49.396;2023-03-25T18:54:40;14.80;52.80
67182;DHT22;54114;53.524;49.396;2023-03-25T18:57:11;14.90;52.80
67182;DHT22;54114;53.524;49.396;2023-03-25T18:59:44;14.90;52.90
67182;DHT22;54114;53.524;49.396;2023-03-25T19:02:11;14.90;52.90
67182;DHT22;54114;53.524;49.396;2023-03-25T19:04:40;14.90;53.10
67182;DHT22;54114;53.524;49.396;2023-03-25T19:07:09;14.90;53.10
67182;DHT22;54114;53.524;49.396;2023-03-25T19:09:35;14.90;53.40
67182;DHT22;54114;53.524;49.396;2023-03-25T19:12:02;14.90;53.50
67182;DHT22;54114;53.524;49.396;2023-03-25T19:14:29;14.90;53.70